sensor_id;sensor_type;location;lat;lon;timestamp;P1;durP1;ratioP1;P2;durP2;ratioP2
72676;SDS011;60755;51.374;10.662;2023-08-12T00:01:42;4.20;;;3.78;;
72676;SDS011;60755;51.374;10.662;2023-08-12T00:04:09;5.30;;;3.88;;
72676;SDS011;60755;51.374;10.662;2023-08-12T00:06:40;6.43;;;3.58;;
72676;SDS011;60755;51.374;10.662;2023-08-12T00:09:08;5.80;;;3.40;;
72676;SDS011;60755;51.374;10.662;2023-08-12T00:11:37;4.63;;;3.40;;
72676;SDS011;60755;51.374;10.662;2023-08-12T00:14:05;3.22;;;2.97;;
72676;SDS011;60755;51.374;10.662;2023-08-12T00:16:33;3.60;;;3.40;;
72676;SDS011;60755;51.374;10.662;2023-08-12T00:19:00;3.60;;;3.30;;
72676;SDS011;60755;51.374;10.662;2023-08-12T00:21:27;4.18;;;3.50;;
72676;SDS011;60755;51.374;10.662;2023-08-12T00:23:54;5.18;;;3.38;;
72676;SDS011;60755;51.374;10.662;2023-08-12T00:26:22;4.78;;;3.60;;
72676;SDS011;60755;51.374;10.662;2023-08-12T00:28:51;3.60;;;3.40;;
72676;SDS011;60755;51.374;10.662;2023-08-12T00:31:18;3.65;;;3.35;;
72676;SDS011;60755;51.374;10.662;2023-08-12T00:33:46;8.30;;;3.80;;
72676;SDS011;60755;51.374;10.662;2023-08-12T00:36:14;3.33;;;3.15;;
72676;SDS011;60755;51.374;10.662;2023-08-12T00:38:42;3.58;;;3.38;;
72676;SDS011;60755;51.374;10.662;2023-08-12T00:41:09;3.55;;;3.35;;
72676;SDS011;60755;51.374;10.662;2023-08-12T00:43:36;4.05;;;3.65;;
72676;SDS011;60755;51.374;10.662;2023-08-12T00:46:05;3.30;;;3.10;;
72676;SDS011;60755;51.374;10.662;2023-08-12T00:48:33;3.70;;;3.40;;
72676;SDS011;60755;51.374;10.662;2023-08-12T00:51:00;3.80;;;3.50;;
72676;SDS011;60755;51.374;10.662;2023-08-12T00:53:29;3.85;;;3.53;;
72676;SDS011;60755;51.374;10.662;2023-08-12T00:55:56;4.10;;;3.15;;
72676;SDS011;60755;51.374;10.662;2023-08-12T00:58:24;5.55;;;3.33;;
72676;SDS011;60755;51.374;10.662;2023-08-12T01:00:51;4.20;;;3.80;;
72676;SDS011;60755;51.374;10.662;2023-08-12T01:03:20;4.82;;;3.40;;
72676;SDS011;60755;51.374;10.662;2023-08-12T01:05:48;3.70;;;3.40;;
72676;SDS011;60755;51.374;10.662;2023-08-12T01:08:16;3.67;;;3.20;;
72676;SDS011;60755;51.374;10.662;2023-08-12T01:10:44;5.03;;;3.55;;
72676;SDS011;60755;51.374;10.662;2023-08-12T01:13:18;6.90;;;3.42;;
72676;SDS011;60755;51.374;10.662;2023-08-12T01:15:51;3.50;;;3.30;;
72676;SDS011;60755;51.374;10.662;2023-08-12T01:18:22;4.40;;;3.20;;
72676;SDS011;60755;51.374;10.662;2023-08-12T01:20:53;3.60;;;3.40;;
72676;SDS011;60755;51.374;10.662;2023-08-12T01:23:21;4.20;;;3.30;;
72676;SDS011;60755;51.374;10.662;2023-08-12T01:25:49;3.42;;;3.22;;
72676;SDS011;60755;51.374;10.662;2023-08-12T01:28:16;3.90;;;3.60;;
72676;SDS011;60755;51.374;10.662;2023-08-12T01:30:46;4.38;;;3.40;;
72676;SDS011;60755;51.374;10.662;2023-08-12T01:33:19;4.15;;;3.85;;
72676;SDS011;60755;51.374;10.662;2023-08-12T01:35:53;3.97;;;3.63;;
72676;SDS011;60755;51.374;10.662;2023-08-12T01:38:28;4.57;;;3.50;;
72676;SDS011;60755;51.374;10.662;2023-08-12T01:41:00;3.72;;;3.53;;
72676;SDS011;60755;51.374;10.662;2023-08-12T01:43:28;3.65;;;3.20;;
72676;SDS011;60755;51.374;10.662;2023-08-12T01:45:56;3.47;;;3.15;;
72676;SDS011;60755;51.374;10.662;2023-08-12T01:48:24;3.97;;;3.67;;
72676;SDS011;60755;51.374;10.662;2023-08-12T01:50:51;3.50;;;3.30;;
72676;SDS011;60755;51.374;10.662;2023-08-12T01:53:19;4.95;;;3.50;;
72676;SDS011;60755;51.374;10.662;2023-08-12T01:55:48;3.80;;;3.50;;
72676;SDS011;60755;51.374;10.662;2023-08-12T01:58:16;3.90;;;3.60;;
72676;SDS011;60755;51.374;10.662;2023-08-12T02:00:43;3.88;;;3.63;;
72676;SDS011;60755;51.374;10.662;2023-08-12T02:03:11;3.80;;;3.60;;
72676;SDS011;60755;51.374;10.662;2023-08-12T02:05:38;3.75;;;3.45;;
72676;SDS011;60755;51.374;10.662;2023-08-12T02:08:06;3.47;;;3.25;;
72676;SDS011;60755;51.374;10.662;2023-08-12T02:10:34;3.80;;;3.53;;
72676;SDS011;60755;51.374;10.662;2023-08-12T02:13:03;3.58;;;3.28;;
72676;SDS011;60755;51.374;10.662;2023-08-12T02:15:30;4.03;;;3.75;;
72676;SDS011;60755;51.374;10.662;2023-08-12T02:17:58;8.57;;;4.15;;
72676;SDS011;60755;51.374;10.662;2023-08-12T02:20:25;3.30;;;3.10;;
72676;SDS011;60755;51.374;10.662;2023-08-12T02:22:53;4.18;;;3.17;;
72676;SDS011;60755;51.374;10.662;2023-08-12T02:25:20;4.00;;;3.80;;
72676;SDS011;60755;51.374;10.662;2023-08-12T02:27:48;4.45;;;3.40;;
72676;SDS011;60755;51.374;10.662;2023-08-12T02:30:16;4.15;;;3.80;;
72676;SDS011;60755;51.374;10.662;2023-08-12T02:32:44;3.75;;;3.35;;
72676;SDS011;60755;51.374;10.662;2023-08-12T02:35:12;3.58;;;3.38;;
72676;SDS011;60755;51.374;10.662;2023-08-12T02:37:39;4.03;;;3.50;;
72676;SDS011;60755;51.374;10.662;2023-08-12T02:40:07;4.50;;;3.25;;
72676;SDS011;60755;51.374;10.662;2023-08-12T02:42:36;3.55;;;3.22;;
72676;SDS011;60755;51.374;10.662;2023-08-12T02:45:03;3.95;;;3.50;;
72676;SDS011;60755;51.374;10.662;2023-08-12T02:47:33;6.47;;;3.40;;
72676;SDS011;60755;51.374;10.662;2023-08-12T02:50:00;5.03;;;3.47;;
72676;SDS011;60755;51.374;10.662;2023-08-12T02:52:28;4.35;;;3.60;;
72676;SDS011;60755;51.374;10.662;2023-08-12T02:54:55;4.38;;;3.80;;
72676;SDS011;60755;51.374;10.662;2023-08-12T02:57:23;3.92;;;3.55;;
72676;SDS011;60755;51.374;10.662;2023-08-12T02:59:50;3.65;;;3.35;;
72676;SDS011;60755;51.374;10.662;2023-08-12T03:02:18;4.00;;;3.80;;
72676;SDS011;60755;51.374;10.662;2023-08-12T03:04:47;3.53;;;3.30;;
72676;SDS011;60755;51.374;10.662;2023-08-12T03:07:14;3.80;;;3.50;;
72676;SDS011;60755;51.374;10.662;2023-08-12T03:09:41;3.70;;;3.50;;
72676;SDS011;60755;51.374;10.662;2023-08-12T03:12:08;3.67;;;3.42;;
72676;SDS011;60755;51.374;10.662;2023-08-12T03:14:36;3.90;;;3.42;;
72676;SDS011;60755;51.374;10.662;2023-08-12T03:17:03;3.63;;;3.33;;
72676;SDS011;60755;51.374;10.662;2023-08-12T03:19:32;3.78;;;3.55;;
72676;SDS011;60755;51.374;10.662;2023-08-12T03:22:01;3.55;;;3.35;;
72676;SDS011;60755;51.374;10.662;2023-08-12T03:24:29;3.92;;;3.30;;
72676;SDS011;60755;51.374;10.662;2023-08-12T03:26:56;3.88;;;3.50;;
72676;SDS011;60755;51.374;10.662;2023-08-12T03:29:23;3.80;;;3.50;;
72676;SDS011;60755;51.374;10.662;2023-08-12T03:31:51;3.38;;;3.13;;
72676;SDS011;60755;51.374;10.662;2023-08-12T03:34:19;3.60;;;3.40;;
72676;SDS011;60755;51.374;10.662;2023-08-12T03:36:46;4.30;;;3.90;;
72676;SDS011;60755;51.374;10.662;2023-08-12T03:39:18;4.28;;;3.55;;
72676;SDS011;60755;51.374;10.662;2023-08-12T03:41:45;3.80;;;3.60;;
72676;SDS011;60755;51.374;10.662;2023-08-12T03:44:12;4.15;;;3.40;;
72676;SDS011;60755;51.374;10.662;2023-08-12T03:46:40;5.63;;;3.83;;
72676;SDS011;60755;51.374;10.662;2023-08-12T03:49:07;5.78;;;3.50;;
72676;SDS011;60755;51.374;10.662;2023-08-12T03:51:35;6.25;;;3.90;;
72676;SDS011;60755;51.374;10.662;2023-08-12T03:54:02;3.90;;;3.60;;
72676;SDS011;60755;51.374;10.662;2023-08-12T03:56:33;6.47;;;3.63;;
72676;SDS011;60755;51.374;10.662;2023-08-12T03:59:02;3.60;;;3.40;;
72676;SDS011;60755;51.374;10.662;2023-08-12T04:01:30;3.67;;;3.47;;
72676;SDS011;60755;51.374;10.662;2023-08-12T04:03:57;3.47;;;3.38;;
72676;SDS011;60755;51.374;10.662;2023-08-12T04:06:24;6.40;;;3.80;;
72676;SDS011;60755;51.374;10.662;2023-08-12T04:08:51;3.95;;;3.75;;
72676;SDS011;60755;51.374;10.662;2023-08-12T04:11:19;3.97;;;3.67;;
72676;SDS011;60755;51.374;10.662;2023-08-12T04:13:47;4.00;;;3.65;;
72676;SDS011;60755;51.374;10.662;2023-08-12T04:16:15;5.72;;;3.72;;
72676;SDS011;60755;51.374;10.662;2023-08-12T04:18:42;3.78;;;3.47;;
72676;SDS011;60755;51.374;10.662;2023-08-12T04:21:09;11.40;;;3.90;;
72676;SDS011;60755;51.374;10.662;2023-08-12T04:23:37;6.15;;;3.55;;
72676;SDS011;60755;51.374;10.662;2023-08-12T04:26:05;3.53;;;3.28;;
72676;SDS011;60755;51.374;10.662;2023-08-12T04:28:32;3.60;;;3.30;;
72676;SDS011;60755;51.374;10.662;2023-08-12T04:31:00;3.95;;;3.63;;
72676;SDS011;60755;51.374;10.662;2023-08-12T04:33:33;3.72;;;3.30;;
72676;SDS011;60755;51.374;10.662;2023-08-12T04:36:00;3.72;;;3.50;;
72676;SDS011;60755;51.374;10.662;2023-08-12T04:38:28;4.40;;;3.70;;
72676;SDS011;60755;51.374;10.662;2023-08-12T04:40:57;3.50;;;3.30;;
72676;SDS011;60755;51.374;10.662;2023-08-12T04:43:25;3.75;;;3.47;;
72676;SDS011;60755;51.374;10.662;2023-08-12T04:45:52;3.80;;;3.40;;
72676;SDS011;60755;51.374;10.662;2023-08-12T04:48:21;3.95;;;3.60;;
72676;SDS011;60755;51.374;10.662;2023-08-12T04:50:48;3.53;;;3.33;;
72676;SDS011;60755;51.374;10.662;2023-08-12T04:53:17;3.97;;;3.45;;
72676;SDS011;60755;51.374;10.662;2023-08-12T04:55:44;6.20;;;3.35;;
72676;SDS011;60755;51.374;10.662;2023-08-12T04:58:11;3.55;;;3.35;;
72676;SDS011;60755;51.374;10.662;2023-08-12T05:00:39;3.90;;;3.50;;
72676;SDS011;60755;51.374;10.662;2023-08-12T05:03:08;3.53;;;3.38;;
72676;SDS011;60755;51.374;10.662;2023-08-12T05:05:36;3.97;;;3.50;;
72676;SDS011;60755;51.374;10.662;2023-08-12T05:08:04;4.63;;;3.80;;
72676;SDS011;60755;51.374;10.662;2023-08-12T05:10:32;4.80;;;4.38;;
72676;SDS011;60755;51.374;10.662;2023-08-12T05:13:00;4.55;;;3.67;;
72676;SDS011;60755;51.374;10.662;2023-08-12T05:15:28;3.95;;;3.70;;
72676;SDS011;60755;51.374;10.662;2023-08-12T05:17:55;4.25;;;3.90;;
72676;SDS011;60755;51.374;10.662;2023-08-12T05:20:23;4.10;;;3.80;;
72676;SDS011;60755;51.374;10.662;2023-08-12T05:22:51;6.53;;;3.78;;
72676;SDS011;60755;51.374;10.662;2023-08-12T05:25:19;7.88;;;4.25;;
72676;SDS011;60755;51.374;10.662;2023-08-12T05:27:46;4.95;;;4.13;;
72676;SDS011;60755;51.374;10.662;2023-08-12T05:30:13;4.30;;;3.90;;
72676;SDS011;60755;51.374;10.662;2023-08-12T05:32:40;4.30;;;3.90;;
72676;SDS011;60755;51.374;10.662;2023-08-12T05:35:09;4.10;;;3.80;;
72676;SDS011;60755;51.374;10.662;2023-08-12T05:37:36;4.95;;;4.47;;
72676;SDS011;60755;51.374;10.662;2023-08-12T05:40:06;5.50;;;4.28;;
72676;SDS011;60755;51.374;10.662;2023-08-12T05:42:35;7.47;;;5.03;;
72676;SDS011;60755;51.374;10.662;2023-08-12T05:45:02;4.72;;;4.28;;
72676;SDS011;60755;51.374;10.662;2023-08-12T05:47:30;5.15;;;4.55;;
72676;SDS011;60755;51.374;10.662;2023-08-12T05:49:58;4.97;;;4.63;;
72676;SDS011;60755;51.374;10.662;2023-08-12T05:52:25;4.80;;;4.50;;
72676;SDS011;60755;51.374;10.662;2023-08-12T05:54:52;9.00;;;4.22;;
72676;SDS011;60755;51.374;10.662;2023-08-12T05:57:21;4.45;;;4.15;;
72676;SDS011;60755;51.374;10.662;2023-08-12T05:59:48;4.90;;;4.32;;
72676;SDS011;60755;51.374;10.662;2023-08-12T06:02:15;6.90;;;6.40;;
72676;SDS011;60755;51.374;10.662;2023-08-12T06:04:43;12.48;;;11.15;;
72676;SDS011;60755;51.374;10.662;2023-08-12T06:07:10;11.52;;;7.53;;
72676;SDS011;60755;51.374;10.662;2023-08-12T06:09:37;6.57;;;5.00;;
72676;SDS011;60755;51.374;10.662;2023-08-12T06:12:05;6.70;;;5.47;;
72676;SDS011;60755;51.374;10.662;2023-08-12T06:14:34;7.43;;;5.68;;
72676;SDS011;60755;51.374;10.662;2023-08-12T06:17:04;6.90;;;5.50;;
72676;SDS011;60755;51.374;10.662;2023-08-12T06:19:31;5.75;;;5.25;;
72676;SDS011;60755;51.374;10.662;2023-08-12T06:21:58;6.10;;;5.60;;
72676;SDS011;60755;51.374;10.662;2023-08-12T06:24:26;8.73;;;4.70;;
72676;SDS011;60755;51.374;10.662;2023-08-12T06:26:53;6.78;;;4.90;;
72676;SDS011;60755;51.374;10.662;2023-08-12T06:29:20;6.07;;;5.00;;
72676;SDS011;60755;51.374;10.662;2023-08-12T06:31:49;8.95;;;4.68;;
72676;SDS011;60755;51.374;10.662;2023-08-12T06:34:16;9.20;;;6.30;;
72676;SDS011;60755;51.374;10.662;2023-08-12T06:36:44;7.07;;;6.43;;
72676;SDS011;60755;51.374;10.662;2023-08-12T06:39:11;6.97;;;5.47;;
72676;SDS011;60755;51.374;10.662;2023-08-12T06:41:39;5.70;;;5.30;;
72676;SDS011;60755;51.374;10.662;2023-08-12T06:44:06;9.23;;;5.78;;
72676;SDS011;60755;51.374;10.662;2023-08-12T06:46:33;6.90;;;6.30;;
72676;SDS011;60755;51.374;10.662;2023-08-12T06:49:02;6.47;;;4.53;;
72676;SDS011;60755;51.374;10.662;2023-08-12T06:51:29;4.25;;;3.88;;
72676;SDS011;60755;51.374;10.662;2023-08-12T06:53:57;4.30;;;4.00;;
72676;SDS011;60755;51.374;10.662;2023-08-12T06:56:24;4.88;;;4.43;;
72676;SDS011;60755;51.374;10.662;2023-08-12T06:58:51;7.22;;;3.90;;
72676;SDS011;60755;51.374;10.662;2023-08-12T07:01:18;4.40;;;4.03;;
72676;SDS011;60755;51.374;10.662;2023-08-12T07:03:45;5.18;;;3.78;;
72676;SDS011;60755;51.374;10.662;2023-08-12T07:06:14;5.78;;;4.13;;
72676;SDS011;60755;51.374;10.662;2023-08-12T07:08:41;7.03;;;4.28;;
72676;SDS011;60755;51.374;10.662;2023-08-12T07:11:09;3.83;;;3.63;;
72676;SDS011;60755;51.374;10.662;2023-08-12T07:13:36;4.07;;;3.80;;
72676;SDS011;60755;51.374;10.662;2023-08-12T07:16:03;5.93;;;4.50;;
72676;SDS011;60755;51.374;10.662;2023-08-12T07:18:30;4.40;;;4.03;;
72676;SDS011;60755;51.374;10.662;2023-08-12T07:20:58;4.75;;;4.43;;
72676;SDS011;60755;51.374;10.662;2023-08-12T07:23:26;6.10;;;4.30;;
72676;SDS011;60755;51.374;10.662;2023-08-12T07:25:54;6.22;;;4.05;;
72676;SDS011;60755;51.374;10.662;2023-08-12T07:28:21;4.70;;;4.35;;
72676;SDS011;60755;51.374;10.662;2023-08-12T07:30:48;4.53;;;4.15;;
72676;SDS011;60755;51.374;10.662;2023-08-12T07:33:19;4.95;;;4.40;;
72676;SDS011;60755;51.374;10.662;2023-08-12T07:35:46;6.70;;;5.93;;
72676;SDS011;60755;51.374;10.662;2023-08-12T07:38:14;7.13;;;6.18;;
72676;SDS011;60755;51.374;10.662;2023-08-12T07:40:43;6.30;;;5.72;;
72676;SDS011;60755;51.374;10.662;2023-08-12T07:43:10;6.05;;;5.03;;
72676;SDS011;60755;51.374;10.662;2023-08-12T07:45:37;5.53;;;5.00;;
72676;SDS011;60755;51.374;10.662;2023-08-12T07:48:05;5.78;;;5.00;;
72676;SDS011;60755;51.374;10.662;2023-08-12T07:50:32;4.90;;;4.50;;
72676;SDS011;60755;51.374;10.662;2023-08-12T07:53:00;5.22;;;4.40;;
72676;SDS011;60755;51.374;10.662;2023-08-12T07:55:27;6.78;;;4.50;;
72676;SDS011;60755;51.374;10.662;2023-08-12T07:57:56;6.05;;;4.20;;
72676;SDS011;60755;51.374;10.662;2023-08-12T08:00:24;4.88;;;4.47;;
72676;SDS011;60755;51.374;10.662;2023-08-12T08:02:50;5.05;;;4.55;;
72676;SDS011;60755;51.374;10.662;2023-08-12T08:05:17;4.55;;;4.25;;
72676;SDS011;60755;51.374;10.662;2023-08-12T08:07:44;4.90;;;4.60;;
72676;SDS011;60755;51.374;10.662;2023-08-12T08:10:11;5.20;;;4.90;;
72676;SDS011;60755;51.374;10.662;2023-08-12T08:12:39;4.60;;;4.30;;
72676;SDS011;60755;51.374;10.662;2023-08-12T08:15:08;6.78;;;4.72;;
72676;SDS011;60755;51.374;10.662;2023-08-12T08:17:35;4.80;;;4.50;;
72676;SDS011;60755;51.374;10.662;2023-08-12T08:20:03;6.53;;;5.10;;
72676;SDS011;60755;51.374;10.662;2023-08-12T08:22:31;4.90;;;4.50;;
72676;SDS011;60755;51.374;10.662;2023-08-12T08:24:59;5.75;;;4.50;;
72676;SDS011;60755;51.374;10.662;2023-08-12T08:27:26;6.32;;;4.20;;
72676;SDS011;60755;51.374;10.662;2023-08-12T08:29:53;5.38;;;4.97;;
72676;SDS011;60755;51.374;10.662;2023-08-12T08:32:22;4.80;;;4.35;;
72676;SDS011;60755;51.374;10.662;2023-08-12T08:34:50;4.57;;;4.28;;
72676;SDS011;60755;51.374;10.662;2023-08-12T08:37:17;4.18;;;3.88;;
72676;SDS011;60755;51.374;10.662;2023-08-12T08:39:44;4.95;;;4.47;;
72676;SDS011;60755;51.374;10.662;2023-08-12T08:42:12;4.85;;;4.30;;
72676;SDS011;60755;51.374;10.662;2023-08-12T08:44:43;4.20;;;3.90;;
72676;SDS011;60755;51.374;10.662;2023-08-12T08:47:12;4.07;;;3.78;;
72676;SDS011;60755;51.374;10.662;2023-08-12T08:49:44;4.43;;;4.13;;
72676;SDS011;60755;51.374;10.662;2023-08-12T08:52:13;4.70;;;4.18;;
72676;SDS011;60755;51.374;10.662;2023-08-12T08:54:40;3.70;;;3.50;;
72676;SDS011;60755;51.374;10.662;2023-08-12T08:57:07;4.40;;;3.97;;
72676;SDS011;60755;51.374;10.662;2023-08-12T08:59:36;3.97;;;3.78;;
72676;SDS011;60755;51.374;10.662;2023-08-12T09:02:03;3.90;;;3.67;;
72676;SDS011;60755;51.374;10.662;2023-08-12T09:04:31;4.10;;;3.80;;
72676;SDS011;60755;51.374;10.662;2023-08-12T09:07:00;4.13;;;3.85;;
72676;SDS011;60755;51.374;10.662;2023-08-12T09:09:31;4.15;;;3.80;;
72676;SDS011;60755;51.374;10.662;2023-08-12T09:11:59;4.05;;;3.85;;
72676;SDS011;60755;51.374;10.662;2023-08-12T09:14:26;4.43;;;3.90;;
72676;SDS011;60755;51.374;10.662;2023-08-12T09:16:54;3.85;;;3.55;;
72676;SDS011;60755;51.374;10.662;2023-08-12T09:19:22;4.35;;;4.05;;
72676;SDS011;60755;51.374;10.662;2023-08-12T09:21:51;4.13;;;3.83;;
72676;SDS011;60755;51.374;10.662;2023-08-12T09:24:24;4.50;;;4.20;;
72676;SDS011;60755;51.374;10.662;2023-08-12T09:26:52;3.85;;;3.65;;
72676;SDS011;60755;51.374;10.662;2023-08-12T09:29:22;5.88;;;4.25;;
72676;SDS011;60755;51.374;10.662;2023-08-12T09:31:49;4.70;;;4.20;;
72676;SDS011;60755;51.374;10.662;2023-08-12T09:34:16;4.40;;;4.20;;
72676;SDS011;60755;51.374;10.662;2023-08-12T09:36:44;4.85;;;4.55;;
72676;SDS011;60755;51.374;10.662;2023-08-12T09:39:13;4.40;;;4.20;;
72676;SDS011;60755;51.374;10.662;2023-08-12T09:41:42;4.75;;;4.30;;
72676;SDS011;60755;51.374;10.662;2023-08-12T09:44:09;4.28;;;4.07;;
72676;SDS011;60755;51.374;10.662;2023-08-12T09:46:37;4.40;;;4.15;;
72676;SDS011;60755;51.374;10.662;2023-08-12T09:49:06;4.15;;;3.95;;
72676;SDS011;60755;51.374;10.662;2023-08-12T09:51:34;4.72;;;4.38;;
72676;SDS011;60755;51.374;10.662;2023-08-12T09:54:02;5.05;;;4.68;;
72676;SDS011;60755;51.374;10.662;2023-08-12T09:56:30;4.80;;;4.45;;
72676;SDS011;60755;51.374;10.662;2023-08-12T09:59:04;4.72;;;4.43;;
72676;SDS011;60755;51.374;10.662;2023-08-12T10:01:33;5.68;;;5.18;;
72676;SDS011;60755;51.374;10.662;2023-08-12T10:04:00;6.35;;;4.65;;
72676;SDS011;60755;51.374;10.662;2023-08-12T10:06:32;5.38;;;5.05;;
72676;SDS011;60755;51.374;10.662;2023-08-12T10:09:00;5.60;;;5.20;;
72676;SDS011;60755;51.374;10.662;2023-08-12T10:11:29;5.43;;;4.97;;
72676;SDS011;60755;51.374;10.662;2023-08-12T10:13:56;5.18;;;4.85;;
72676;SDS011;60755;51.374;10.662;2023-08-12T10:16:25;5.50;;;5.07;;
72676;SDS011;60755;51.374;10.662;2023-08-12T10:18:55;6.18;;;5.45;;
72676;SDS011;60755;51.374;10.662;2023-08-12T10:21:22;6.25;;;5.30;;
72676;SDS011;60755;51.374;10.662;2023-08-12T10:23:50;5.38;;;4.88;;
72676;SDS011;60755;51.374;10.662;2023-08-12T10:26:17;5.40;;;4.90;;
72676;SDS011;60755;51.374;10.662;2023-08-12T10:28:44;5.68;;;4.90;;
72676;SDS011;60755;51.374;10.662;2023-08-12T10:31:12;5.20;;;4.80;;
72676;SDS011;60755;51.374;10.662;2023-08-12T10:33:41;5.65;;;5.13;;
72676;SDS011;60755;51.374;10.662;2023-08-12T10:36:08;5.70;;;5.30;;
72676;SDS011;60755;51.374;10.662;2023-08-12T10:38:35;5.20;;;4.72;;
72676;SDS011;60755;51.374;10.662;2023-08-12T10:41:15;5.25;;;4.85;;
72676;SDS011;60755;51.374;10.662;2023-08-12T10:43:53;4.95;;;4.65;;
72676;SDS011;60755;51.374;10.662;2023-08-12T10:46:22;4.72;;;4.30;;
72676;SDS011;60755;51.374;10.662;2023-08-12T10:48:58;4.50;;;4.20;;
72676;SDS011;60755;51.374;10.662;2023-08-12T10:51:41;4.47;;;4.07;;
72676;SDS011;60755;51.374;10.662;2023-08-12T10:54:16;4.90;;;4.57;;
72676;SDS011;60755;51.374;10.662;2023-08-12T10:59:52;5.07;;;4.30;;
72676;SDS011;60755;51.374;10.662;2023-08-12T11:02:22;4.50;;;4.10;;
72676;SDS011;60755;51.374;10.662;2023-08-12T11:04:55;4.25;;;3.85;;
72676;SDS011;60755;51.374;10.662;2023-08-12T11:07:33;3.78;;;3.55;;
72676;SDS011;60755;51.374;10.662;2023-08-12T11:10:05;4.18;;;3.97;;
72676;SDS011;60755;51.374;10.662;2023-08-12T11:12:37;4.10;;;3.85;;
72676;SDS011;60755;51.374;10.662;2023-08-12T11:15:06;3.90;;;3.60;;
72676;SDS011;60755;51.374;10.662;2023-08-12T11:17:35;3.90;;;3.70;;
72676;SDS011;60755;51.374;10.662;2023-08-12T11:20:05;5.03;;;3.88;;
72676;SDS011;60755;51.374;10.662;2023-08-12T11:22:36;4.57;;;4.15;;
72676;SDS011;60755;51.374;10.662;2023-08-12T11:25:04;4.30;;;4.00;;
72676;SDS011;60755;51.374;10.662;2023-08-12T11:27:37;3.95;;;3.72;;
72676;SDS011;60755;51.374;10.662;2023-08-12T11:30:06;3.85;;;3.65;;
72676;SDS011;60755;51.374;10.662;2023-08-12T11:32:36;3.92;;;3.65;;
72676;SDS011;60755;51.374;10.662;2023-08-12T11:35:06;3.88;;;3.67;;
72676;SDS011;60755;51.374;10.662;2023-08-12T11:37:35;4.20;;;3.78;;
72676;SDS011;60755;51.374;10.662;2023-08-12T11:40:02;4.32;;;3.92;;
72676;SDS011;60755;51.374;10.662;2023-08-12T11:42:31;3.80;;;3.60;;
72676;SDS011;60755;51.374;10.662;2023-08-12T11:44:58;3.45;;;3.35;;
72676;SDS011;60755;51.374;10.662;2023-08-12T11:47:26;3.35;;;3.25;;
72676;SDS011;60755;51.374;10.662;2023-08-12T11:49:53;3.90;;;3.70;;
72676;SDS011;60755;51.374;10.662;2023-08-12T11:52:22;6.35;;;3.53;;
72676;SDS011;60755;51.374;10.662;2023-08-12T11:54:50;3.53;;;3.22;;
72676;SDS011;60755;51.374;10.662;2023-08-12T11:57:18;3.25;;;3.15;;
72676;SDS011;60755;51.374;10.662;2023-08-12T11:59:45;3.05;;;2.97;;
72676;SDS011;60755;51.374;10.662;2023-08-12T12:02:12;3.42;;;3.30;;
72676;SDS011;60755;51.374;10.662;2023-08-12T12:04:41;3.10;;;3.00;;
72676;SDS011;60755;51.374;10.662;2023-08-12T12:07:18;3.33;;;3.10;;
72676;SDS011;60755;51.374;10.662;2023-08-12T12:09:49;3.40;;;3.10;;
72676;SDS011;60755;51.374;10.662;2023-08-12T12:12:17;3.30;;;3.10;;
72676;SDS011;60755;51.374;10.662;2023-08-12T12:14:46;3.03;;;2.70;;
72676;SDS011;60755;51.374;10.662;2023-08-12T12:17:14;3.33;;;2.92;;
72676;SDS011;60755;51.374;10.662;2023-08-12T12:19:41;8.60;;;3.10;;
72676;SDS011;60755;51.374;10.662;2023-08-12T12:22:09;2.90;;;2.80;;
72676;SDS011;60755;51.374;10.662;2023-08-12T12:24:46;3.30;;;3.20;;
72676;SDS011;60755;51.374;10.662;2023-08-12T12:27:15;3.13;;;2.88;;
72676;SDS011;60755;51.374;10.662;2023-08-12T12:29:42;3.42;;;3.10;;
72676;SDS011;60755;51.374;10.662;2023-08-12T12:32:10;3.35;;;3.15;;
72676;SDS011;60755;51.374;10.662;2023-08-12T12:34:38;2.78;;;2.67;;
72676;SDS011;60755;51.374;10.662;2023-08-12T12:37:05;2.75;;;2.60;;
72676;SDS011;60755;51.374;10.662;2023-08-12T12:39:32;2.58;;;2.33;;
72676;SDS011;60755;51.374;10.662;2023-08-12T12:42:01;2.13;;;2.03;;
72676;SDS011;60755;51.374;10.662;2023-08-12T12:44:29;2.47;;;2.30;;
72676;SDS011;60755;51.374;10.662;2023-08-12T12:46:56;2.25;;;2.15;;
72676;SDS011;60755;51.374;10.662;2023-08-12T12:49:23;2.22;;;2.05;;
72676;SDS011;60755;51.374;10.662;2023-08-12T12:51:51;2.08;;;1.98;;
72676;SDS011;60755;51.374;10.662;2023-08-12T12:54:18;3.33;;;2.10;;
72676;SDS011;60755;51.374;10.662;2023-08-12T12:56:45;2.08;;;2.08;;
72676;SDS011;60755;51.374;10.662;2023-08-12T12:59:14;1.92;;;1.83;;
72676;SDS011;60755;51.374;10.662;2023-08-12T13:01:41;2.22;;;2.13;;
72676;SDS011;60755;51.374;10.662;2023-08-12T13:04:08;2.25;;;1.95;;
72676;SDS011;60755;51.374;10.662;2023-08-12T13:06:36;2.60;;;2.50;;
72676;SDS011;60755;51.374;10.662;2023-08-12T13:09:03;1.77;;;1.77;;
72676;SDS011;60755;51.374;10.662;2023-08-12T13:11:31;1.40;;;1.40;;
72676;SDS011;60755;51.374;10.662;2023-08-12T13:14:00;1.52;;;1.52;;
72676;SDS011;60755;51.374;10.662;2023-08-12T13:16:28;1.30;;;1.30;;
72676;SDS011;60755;51.374;10.662;2023-08-12T13:18:56;1.70;;;1.60;;
72676;SDS011;60755;51.374;10.662;2023-08-12T13:21:24;1.65;;;1.60;;
72676;SDS011;60755;51.374;10.662;2023-08-12T13:23:51;1.45;;;1.45;;
72676;SDS011;60755;51.374;10.662;2023-08-12T13:26:21;1.30;;;1.30;;
72676;SDS011;60755;51.374;10.662;2023-08-12T13:28:48;1.33;;;1.33;;
72676;SDS011;60755;51.374;10.662;2023-08-12T13:31:16;1.45;;;1.45;;
72676;SDS011;60755;51.374;10.662;2023-08-12T13:33:44;1.45;;;1.40;;
72676;SDS011;60755;51.374;10.662;2023-08-12T13:36:12;2.28;;;1.70;;
72676;SDS011;60755;51.374;10.662;2023-08-12T13:38:39;1.90;;;1.60;;
72676;SDS011;60755;51.374;10.662;2023-08-12T13:41:06;1.63;;;1.63;;
72676;SDS011;60755;51.374;10.662;2023-08-12T13:43:33;1.92;;;1.83;;
72676;SDS011;60755;51.374;10.662;2023-08-12T13:46:01;1.95;;;1.85;;
72676;SDS011;60755;51.374;10.662;2023-08-12T13:48:29;2.85;;;1.80;;
72676;SDS011;60755;51.374;10.662;2023-08-12T13:50:57;1.83;;;1.77;;
72676;SDS011;60755;51.374;10.662;2023-08-12T13:53:25;2.05;;;1.95;;
72676;SDS011;60755;51.374;10.662;2023-08-12T13:55:52;1.77;;;1.77;;
72676;SDS011;60755;51.374;10.662;2023-08-12T13:58:19;2.50;;;2.25;;
72676;SDS011;60755;51.374;10.662;2023-08-12T14:00:46;2.15;;;2.00;;
72676;SDS011;60755;51.374;10.662;2023-08-12T14:03:14;2.20;;;2.10;;
72676;SDS011;60755;51.374;10.662;2023-08-12T14:05:42;1.90;;;1.90;;
72676;SDS011;60755;51.374;10.662;2023-08-12T14:08:12;2.58;;;2.38;;
72676;SDS011;60755;51.374;10.662;2023-08-12T14:10:39;2.08;;;2.08;;
72676;SDS011;60755;51.374;10.662;2023-08-12T14:13:06;1.90;;;1.90;;
72676;SDS011;60755;51.374;10.662;2023-08-12T14:15:33;2.40;;;2.30;;
72676;SDS011;60755;51.374;10.662;2023-08-12T14:18:01;2.20;;;2.20;;
72676;SDS011;60755;51.374;10.662;2023-08-12T14:20:29;5.03;;;2.38;;
72676;SDS011;60755;51.374;10.662;2023-08-12T14:22:56;2.42;;;2.22;;
72676;SDS011;60755;51.374;10.662;2023-08-12T14:25:26;2.30;;;2.20;;
72676;SDS011;60755;51.374;10.662;2023-08-12T14:27:53;2.60;;;2.50;;
72676;SDS011;60755;51.374;10.662;2023-08-12T14:30:22;2.55;;;2.30;;
72676;SDS011;60755;51.374;10.662;2023-08-12T14:32:51;2.40;;;2.30;;
72676;SDS011;60755;51.374;10.662;2023-08-12T14:35:18;2.20;;;2.10;;
72676;SDS011;60755;51.374;10.662;2023-08-12T14:37:45;2.50;;;2.30;;
72676;SDS011;60755;51.374;10.662;2023-08-12T14:40:13;2.40;;;2.30;;
72676;SDS011;60755;51.374;10.662;2023-08-12T14:42:41;2.58;;;2.38;;